createdAt,value
2022-12-14T00:01:49.595Z,87.95
2022-12-14T00:04:16.937Z,87.78
2022-12-14T00:06:43.816Z,88.08
2022-12-14T00:09:10.678Z,88.14
2022-12-14T00:11:37.929Z,87.51
2022-12-14T00:14:05.711Z,87.89
2022-12-14T00:16:34.756Z,87.53
2022-12-14T00:19:03.178Z,87.92
2022-12-14T00:21:30.240Z,87.34
2022-12-14T00:23:59.222Z,87.80
2022-12-14T00:26:29.143Z,88.26
2022-12-14T00:28:56.401Z,87.13
2022-12-14T00:31:25.316Z,87.65
2022-12-14T00:33:53.298Z,87.58
2022-12-14T00:36:20.697Z,87.07
2022-12-14T00:38:47.693Z,87.20
2022-12-14T00:41:14.947Z,86.91
2022-12-14T00:43:42.032Z,87.00
2022-12-14T00:46:08.928Z,86.88
2022-12-14T00:48:36.397Z,87.08
2022-12-14T00:51:04.070Z,87.36
2022-12-14T00:53:31.035Z,86.90
2022-12-14T00:55:57.967Z,86.70
2022-12-14T00:58:25.691Z,86.63
2022-12-14T01:01:04.482Z,86.68
2022-12-14T01:03:32.263Z,87.38
2022-12-14T01:05:59.676Z,86.66
2022-12-14T01:08:26.990Z,86.87
2022-12-14T01:10:56.069Z,86.28
2022-12-14T01:13:23.101Z,86.71
2022-12-14T01:15:50.144Z,86.87
2022-12-14T01:18:17.438Z,86.86
2022-12-14T01:20:44.264Z,86.40
2022-12-14T01:23:11.505Z,86.77
2022-12-14T01:25:38.738Z,86.48
2022-12-14T01:30:41.820Z,86.19
2022-12-14T01:33:08.707Z,86.93
2022-12-14T01:35:35.875Z,86.16
2022-12-14T01:38:02.860Z,85.96
2022-12-14T01:40:29.911Z,85.80
2022-12-14T01:42:56.727Z,86.39
2022-12-14T01:45:23.803Z,86.19
2022-12-14T01:47:56.481Z,86.44
2022-12-14T01:50:27.108Z,86.37
2022-12-14T01:52:59.434Z,86.00
2022-12-14T01:55:32.634Z,86.49
2022-12-14T01:58:17.298Z,87.43
2022-12-14T02:00:45.127Z,86.13
2022-12-14T02:03:16.903Z,87.05
2022-12-14T02:05:48.729Z,86.27
2022-12-14T02:08:18.715Z,86.62
2022-12-14T02:10:47.404Z,86.50
2022-12-14T02:13:32.453Z,86.43
2022-12-14T02:15:59.726Z,86.29
2022-12-14T02:18:30.175Z,86.74
2022-12-14T02:21:05.986Z,86.62
2022-12-14T02:23:55.447Z,86.25
2022-12-14T02:26:55.836Z,86.30
2022-12-14T02:29:47.308Z,86.67
2022-12-14T02:32:33.400Z,86.49
2022-12-14T02:35:22.768Z,86.93
2022-12-14T02:38:05.595Z,86.95
2022-12-14T02:40:41.548Z,86.77
2022-12-14T02:43:27.478Z,87.48
2022-12-14T02:46:08.526Z,86.68
2022-12-14T02:48:41.651Z,86.67
2022-12-14T02:51:33.081Z,86.46
2022-12-14T02:54:08.112Z,88.11
2022-12-14T02:56:45.563Z,87.07
2022-12-14T02:59:13.821Z,87.46
2022-12-14T03:01:42.920Z,87.67
2022-12-14T03:04:15.093Z,87.59
2022-12-14T03:06:53.740Z,87.51
2022-12-14T03:09:20.978Z,87.63
2022-12-14T03:11:56.410Z,87.47
2022-12-14T03:14:33.177Z,87.65
2022-12-14T03:17:08.096Z,87.36
2022-12-14T03:19:41.284Z,87.50
2022-12-14T03:22:17.403Z,86.66
2022-12-14T03:24:51.335Z,87.81
2022-12-14T03:27:25.901Z,87.02
2022-12-14T03:29:57.470Z,87.85
2022-12-14T03:32:28.082Z,87.21
2022-12-14T03:35:05.241Z,87.29
2022-12-14T03:37:38.544Z,87.05
2022-12-14T03:40:10.745Z,86.91
2022-12-14T03:43:16.836Z,87.82
2022-12-14T03:46:24.130Z,87.64
2022-12-14T03:48:54.683Z,87.87
2022-12-14T03:51:40.115Z,87.94
2022-12-14T03:54:16.186Z,87.57
2022-12-14T03:57:12.339Z,87.91
2022-12-14T03:59:47.937Z,88.84
2022-12-14T04:02:28.421Z,87.67
2022-12-14T04:05:14.125Z,88.14
2022-12-14T04:08:01.391Z,88.00
2022-12-14T04:10:58.873Z,87.25
2022-12-14T04:13:51.018Z,87.61
2022-12-14T04:16:43.200Z,88.41
2022-12-14T04:19:23.264Z,88.72
2022-12-14T04:21:58.934Z,88.44
2022-12-14T04:25:05.741Z,88.04
2022-12-14T04:27:47.552Z,88.96
2022-12-14T04:30:15.368Z,88.67
2022-12-14T04:33:00.075Z,88.64
2022-12-14T04:35:34.153Z,88.90
2022-12-14T04:38:13.225Z,88.82
2022-12-14T04:40:45.295Z,88.79
2022-12-14T04:43:18.410Z,88.16
2022-12-14T04:46:12.957Z,88.92
2022-12-14T04:48:39.820Z,88.64
2022-12-14T04:51:25.305Z,88.53
2022-12-14T04:53:59.100Z,88.96
2022-12-14T04:56:42.605Z,89.50
2022-12-14T04:59:10.119Z,88.93
2022-12-14T05:02:01.524Z,89.49
2022-12-14T05:04:37.522Z,88.67
2022-12-14T05:07:22.660Z,88.28
2022-12-14T05:10:06.372Z,89.42
2022-12-14T05:13:04.301Z,89.03
2022-12-14T05:15:42.448Z,89.55
2022-12-14T05:18:10.811Z,88.70
2022-12-14T05:20:38.014Z,89.11
2022-12-14T05:23:04.984Z,89.40
2022-12-14T05:25:32.302Z,89.36
2022-12-14T05:28:03.043Z,89.69
2022-12-14T05:30:29.990Z,89.13
2022-12-14T05:32:58.011Z,89.24
2022-12-14T05:35:25.148Z,89.17
2022-12-14T05:37:51.997Z,89.93
2022-12-14T05:40:18.970Z,89.91
2022-12-14T05:42:48.745Z,90.18
2022-12-14T05:45:19.621Z,89.85
2022-12-14T05:47:46.612Z,90.26
2022-12-14T05:50:13.440Z,90.14
2022-12-14T05:52:40.376Z,90.44
2022-12-14T05:55:07.865Z,89.77
2022-12-14T05:57:35.102Z,89.86
2022-12-14T06:00:02.221Z,89.36
2022-12-14T06:02:29.088Z,89.91
2022-12-14T06:04:55.978Z,90.23
2022-12-14T06:07:27.672Z,89.19
2022-12-14T06:09:55.160Z,89.36
2022-12-14T06:12:22.645Z,89.43
2022-12-14T06:14:49.574Z,88.74
2022-12-14T06:17:16.606Z,88.63
2022-12-14T06:19:49.636Z,88.37
2022-12-14T06:22:17.367Z,88.84
2022-12-14T06:24:44.209Z,88.50
2022-12-14T06:27:12.183Z,88.32
2022-12-14T06:29:39.827Z,87.86
2022-12-14T06:32:08.065Z,88.54
2022-12-14T06:34:39.090Z,88.71
2022-12-14T06:37:08.309Z,88.61
2022-12-14T06:39:35.480Z,88.69
2022-12-14T06:42:02.466Z,88.75
2022-12-14T06:44:29.387Z,88.46
2022-12-14T06:46:56.613Z,88.44
2022-12-14T06:49:23.766Z,88.51
2022-12-14T06:51:51.084Z,88.92
2022-12-14T06:54:19.539Z,88.42
2022-12-14T06:56:47.597Z,88.26
2022-12-14T06:59:16.797Z,88.08
2022-12-14T07:01:43.752Z,88.11
2022-12-14T07:04:11.061Z,87.54
2022-12-14T07:06:41.138Z,87.98
2022-12-14T07:09:11.323Z,87.82
2022-12-14T07:11:38.157Z,87.50
2022-12-14T07:14:06.460Z,87.13
2022-12-14T07:16:35.383Z,87.17
2022-12-14T07:19:02.225Z,87.12
2022-12-14T07:21:29.612Z,86.64
2022-12-14T07:23:56.608Z,86.99
2022-12-14T07:26:25.865Z,86.91
2022-12-14T07:28:53.186Z,87.02
2022-12-14T07:31:22.343Z,87.01
2022-12-14T07:33:51.710Z,87.16
2022-12-14T07:36:20.722Z,87.58
2022-12-14T07:38:49.524Z,87.10
2022-12-14T07:41:22.829Z,87.69
2022-12-14T07:43:51.913Z,87.44
2022-12-14T07:46:21.654Z,87.35
2022-12-14T07:48:54.092Z,87.39
2022-12-14T07:51:24.324Z,87.24
2022-12-14T07:53:51.770Z,87.19
2022-12-14T07:56:22.157Z,87.63
2022-12-14T07:58:49.681Z,87.64
2022-12-14T08:01:22.835Z,88.06
2022-12-14T08:04:01.090Z,87.38
2022-12-14T08:06:29.898Z,88.34
2022-12-14T08:08:57.452Z,87.73
2022-12-14T08:11:25.342Z,87.63
2022-12-14T08:14:00.711Z,88.72
2022-12-14T08:16:28.385Z,88.53
2022-12-14T08:18:57.014Z,87.52
2022-12-14T08:21:25.113Z,88.51
2022-12-14T08:23:53.666Z,88.58
2022-12-14T08:26:21.339Z,89.01
2022-12-14T08:28:49.071Z,88.68
2022-12-14T08:31:20.746Z,88.68
2022-12-14T08:33:51.550Z,88.84
2022-12-14T08:36:24.692Z,88.74
2022-12-14T08:38:56.628Z,88.39
2022-12-14T08:41:25.607Z,88.72
2022-12-14T08:43:54.446Z,88.67
2022-12-14T08:46:22.768Z,88.88
2022-12-14T08:48:52.391Z,88.70
2022-12-14T08:51:19.909Z,89.00
2022-12-14T08:53:48.120Z,89.21
2022-12-14T08:56:19.323Z,89.33
2022-12-14T08:58:46.569Z,89.76
2022-12-14T09:01:16.972Z,89.49
2022-12-14T09:03:45.454Z,89.85
2022-12-14T09:06:19.802Z,89.12
2022-12-14T09:08:47.253Z,89.94
2022-12-14T09:11:22.489Z,89.99
2022-12-14T09:13:52.993Z,89.58
2022-12-14T09:16:22.997Z,89.21
2022-12-14T09:18:50.775Z,89.44
2022-12-14T09:21:18.198Z,89.75
2022-12-14T09:23:45.917Z,89.65
2022-12-14T09:26:22.071Z,89.58
2022-12-14T09:28:51.952Z,89.66
2022-12-14T09:31:21.950Z,89.79
2022-12-14T09:33:49.297Z,89.73
2022-12-14T09:36:18.943Z,90.01
2022-12-14T09:38:51.018Z,89.60
2022-12-14T09:41:33.988Z,90.20
2022-12-14T09:44:06.096Z,89.67
2022-12-14T09:46:38.708Z,90.03
2022-12-14T09:49:26.809Z,89.53
2022-12-14T09:51:56.880Z,90.39
2022-12-14T09:54:28.068Z,89.76
2022-12-14T09:57:01.397Z,89.41
2022-12-14T09:59:31.085Z,87.70
2022-12-14T10:04:59.565Z,80.82
2022-12-14T10:07:44.889Z,76.97
2022-12-14T10:10:28.523Z,75.38
2022-12-14T10:13:20.343Z,76.52
2022-12-14T10:16:06.217Z,75.10
2022-12-14T10:19:00.128Z,75.22
2022-12-14T10:21:38.453Z,76.48
2022-12-14T10:24:07.991Z,76.15
2022-12-14T10:26:48.441Z,74.21
2022-12-14T10:29:18.115Z,72.04
2022-12-14T10:31:57.380Z,71.42
2022-12-14T10:34:30.637Z,70.41
2022-12-14T10:37:18.931Z,67.64
2022-12-14T10:40:04.693Z,66.64
2022-12-14T10:43:01.324Z,67.07
2022-12-14T10:45:47.757Z,64.10
2022-12-14T10:48:25.647Z,59.73
2022-12-14T10:51:07.576Z,54.37
2022-12-14T10:53:50.030Z,49.64
2022-12-14T10:56:29.270Z,47.30
2022-12-14T10:59:27.217Z,44.86
2022-12-14T11:02:02.303Z,43.34
2022-12-14T11:04:54.195Z,42.45
2022-12-14T11:07:24.720Z,41.26
2022-12-14T11:09:51.931Z,40.65
2022-12-14T11:12:27.294Z,37.27
2022-12-14T11:15:03.249Z,37.42
2022-12-14T11:17:35.532Z,35.89
2022-12-14T11:20:19.863Z,35.82
2022-12-14T11:22:50.852Z,35.08
2022-12-14T11:25:45.400Z,34.08
2022-12-14T11:28:38.266Z,33.97
2022-12-14T11:31:07.833Z,33.19
2022-12-14T11:33:43.882Z,31.84
2022-12-14T11:36:51.577Z,32.50
2022-12-14T11:39:26.586Z,32.66
2022-12-14T11:41:59.193Z,32.87
2022-12-14T11:44:29.160Z,31.86
2022-12-14T11:46:58.735Z,32.00
2022-12-14T11:49:41.059Z,32.05
2022-12-14T11:52:19.985Z,30.95
2022-12-14T11:55:03.956Z,31.31
2022-12-14T11:57:55.837Z,29.77
2022-12-14T12:00:27.572Z,30.27
2022-12-14T12:03:06.985Z,29.97
2022-12-14T12:05:40.176Z,29.63
2022-12-14T12:08:28.931Z,30.01
2022-12-14T12:11:02.219Z,30.52
2022-12-14T12:13:31.974Z,29.74
2022-12-14T12:16:21.109Z,29.36
2022-12-14T12:18:52.615Z,29.79
2022-12-14T12:21:27.748Z,30.26
2022-12-14T12:24:15.602Z,29.13
2022-12-14T12:26:50.537Z,28.22
2022-12-14T12:29:20.205Z,28.30
2022-12-14T12:32:10.621Z,27.99
2022-12-14T12:34:42.517Z,29.78
2022-12-14T12:37:26.311Z,29.44
2022-12-14T12:40:00.463Z,29.52
2022-12-14T12:42:36.633Z,29.56
2022-12-14T12:45:07.495Z,29.92
2022-12-14T12:47:47.481Z,29.62
2022-12-14T12:50:21.761Z,29.39
2022-12-14T12:52:51.737Z,29.21
2022-12-14T12:55:21.440Z,29.13
2022-12-14T12:57:53.670Z,28.77
2022-12-14T13:00:29.820Z,29.46
2022-12-14T13:03:13.908Z,29.75
2022-12-14T13:05:47.680Z,28.77
2022-12-14T13:08:20.953Z,28.30
2022-12-14T13:13:41.794Z,32.29
2022-12-14T13:16:13.626Z,36.79
2022-12-14T13:19:01.896Z,40.35
2022-12-14T13:21:38.000Z,43.15
2022-12-14T13:24:07.058Z,45.61
2022-12-14T13:27:03.172Z,47.56
2022-12-14T13:29:33.631Z,49.21
2022-12-14T13:32:17.848Z,50.79
2022-12-14T13:35:29.430Z,51.90
2022-12-14T13:38:07.720Z,53.19
2022-12-14T13:41:09.791Z,53.72
2022-12-14T13:43:51.675Z,54.79
2022-12-14T13:46:26.369Z,55.73
2022-12-14T13:48:55.613Z,56.75
2022-12-14T13:51:28.728Z,57.26
2022-12-14T13:53:59.640Z,58.07
2022-12-14T13:56:33.839Z,58.51
2022-12-14T13:59:05.018Z,59.27
2022-12-14T14:01:47.132Z,59.63
2022-12-14T14:04:14.520Z,60.33
2022-12-14T14:06:42.152Z,61.51
2022-12-14T14:09:28.619Z,61.13
2022-12-14T14:11:58.942Z,62.02
2022-12-14T14:14:52.108Z,61.73
2022-12-14T14:17:37.334Z,59.84
2022-12-14T14:20:36.907Z,58.16
2022-12-14T14:23:29.393Z,59.06
2022-12-14T14:26:20.671Z,60.26
2022-12-14T14:29:23.335Z,60.60
2022-12-14T14:31:52.113Z,60.02
2022-12-14T14:34:46.664Z,60.87
2022-12-14T14:37:25.593Z,60.85
2022-12-14T14:40:04.858Z,60.51
2022-12-14T14:42:48.246Z,61.80
2022-12-14T14:45:32.751Z,62.70
2022-12-14T14:48:02.394Z,64.01
2022-12-14T14:50:40.129Z,64.46
2022-12-14T14:53:18.941Z,65.63
2022-12-14T14:56:00.162Z,65.87
2022-12-14T14:58:32.458Z,66.65
2022-12-14T15:01:07.434Z,67.15
2022-12-14T15:03:45.685Z,67.89
2022-12-14T15:06:39.708Z,68.16
2022-12-14T15:09:08.978Z,68.76
2022-12-14T15:11:46.185Z,68.90
2022-12-14T15:14:36.602Z,69.05
2022-12-14T15:17:18.386Z,70.14
2022-12-14T15:19:53.206Z,70.49
2022-12-14T15:22:36.799Z,70.73
2022-12-14T15:25:03.941Z,71.30
2022-12-14T15:27:36.344Z,71.69
2022-12-14T15:30:06.027Z,73.45
2022-12-14T15:32:33.235Z,72.96
2022-12-14T15:35:05.043Z,74.12
2022-12-14T15:37:45.071Z,74.11
2022-12-14T15:40:27.027Z,74.35
2022-12-14T15:42:59.268Z,75.06
2022-12-14T15:45:31.971Z,75.37
2022-12-14T15:48:35.216Z,75.85
2022-12-14T15:51:18.008Z,76.02
2022-12-14T15:53:54.367Z,76.52
2022-12-14T15:56:42.090Z,77.01
2022-12-14T15:59:19.713Z,77.75
2022-12-14T16:01:54.252Z,76.96
2022-12-14T16:04:27.707Z,77.17
2022-12-14T16:07:08.727Z,77.85
2022-12-14T16:10:01.205Z,77.69
2022-12-14T16:12:44.672Z,78.53
2022-12-14T16:15:24.425Z,79.54
2022-12-14T16:17:57.444Z,78.87
2022-12-14T16:20:34.100Z,78.97
2022-12-14T16:23:06.042Z,80.18
2022-12-14T16:25:35.652Z,79.77
2022-12-14T16:28:25.844Z,79.45
2022-12-14T16:31:15.961Z,79.71
2022-12-14T16:33:44.010Z,80.37
2022-12-14T16:36:28.547Z,80.90
2022-12-14T16:39:18.044Z,81.15
2022-12-14T16:42:07.101Z,81.22
2022-12-14T16:44:33.754Z,81.47
2022-12-14T16:47:03.254Z,80.91
2022-12-14T16:49:33.218Z,82.18
2022-12-14T16:52:10.402Z,82.02
2022-12-14T16:54:38.163Z,82.14
2022-12-14T16:57:06.165Z,82.86
2022-12-14T16:59:40.506Z,82.58
2022-12-14T17:02:36.453Z,83.04
2022-12-14T17:05:12.642Z,83.20
2022-12-14T17:07:39.459Z,83.32
2022-12-14T17:10:15.177Z,83.38
2022-12-14T17:12:44.078Z,84.17
2022-12-14T17:15:19.776Z,83.72
2022-12-14T17:17:49.704Z,83.51
2022-12-14T17:20:27.180Z,84.26
2022-12-14T17:22:58.291Z,84.08
2022-12-14T17:25:27.395Z,83.97
2022-12-14T17:27:54.443Z,84.16
2022-12-14T17:30:23.601Z,84.13
2022-12-14T17:32:55.078Z,84.35
2022-12-14T17:35:21.684Z,84.92
2022-12-14T17:37:49.263Z,84.43
2022-12-14T17:40:16.676Z,85.20
2022-12-14T17:42:47.434Z,85.24
2022-12-14T17:45:28.967Z,85.50
2022-12-14T17:47:56.036Z,85.90
2022-12-14T17:50:23.497Z,85.82
2022-12-14T17:52:50.704Z,86.16
2022-12-14T17:55:18.318Z,85.48
2022-12-14T17:57:45.821Z,86.31
2022-12-14T18:00:39.614Z,85.47
2022-12-14T18:03:06.545Z,85.94
2022-12-14T18:05:33.892Z,85.81
2022-12-14T18:08:00.905Z,86.29
2022-12-14T18:10:28.364Z,86.30
2022-12-14T18:12:55.758Z,86.70
2022-12-14T18:15:27.275Z,86.03
2022-12-14T18:17:54.248Z,86.22
2022-12-14T18:20:23.471Z,86.86
2022-12-14T18:22:51.277Z,86.39
2022-12-14T18:25:34.699Z,86.06
2022-12-14T18:28:04.296Z,86.78
2022-12-14T18:30:38.821Z,86.47
2022-12-14T18:33:11.932Z,86.84
2022-12-14T18:35:38.572Z,86.88
2022-12-14T18:38:05.496Z,86.48
2022-12-14T18:40:32.232Z,87.26
2022-12-14T18:42:59.149Z,86.40
2022-12-14T18:45:29.065Z,86.81
2022-12-14T18:47:56.348Z,87.04
2022-12-14T18:50:23.872Z,88.04
2022-12-14T18:52:51.207Z,87.34
2022-12-14T18:55:20.830Z,87.83
2022-12-14T18:57:49.575Z,88.02
2022-12-14T19:00:19.438Z,87.75
2022-12-14T19:02:49.486Z,88.54
2022-12-14T19:05:23.260Z,87.90
2022-12-14T19:07:52.583Z,88.30
2022-12-14T19:10:22.080Z,88.67
2022-12-14T19:12:49.668Z,88.48
2022-12-14T19:15:26.092Z,87.86
2022-12-14T19:17:53.097Z,87.93
2022-12-14T19:20:21.417Z,88.15
2022-12-14T19:22:48.882Z,88.27
2022-12-14T19:25:17.110Z,87.83
2022-12-14T19:28:20.406Z,88.31
2022-12-14T19:30:34.733Z,88.46
2022-12-14T19:33:01.903Z,88.58
2022-12-14T19:35:28.717Z,88.48
2022-12-14T19:37:55.506Z,88.63
2022-12-14T19:40:22.162Z,88.50
2022-12-14T19:42:48.892Z,88.58
2022-12-14T19:45:15.972Z,88.33
2022-12-14T19:47:44.162Z,88.33
2022-12-14T19:50:13.750Z,88.94
2022-12-14T19:52:40.707Z,88.70
2022-12-14T19:55:07.699Z,89.04
2022-12-14T19:57:34.383Z,89.26
2022-12-14T20:00:01.349Z,89.23
2022-12-14T20:02:28.279Z,88.87
2022-12-14T20:04:55.094Z,88.98
2022-12-14T20:07:21.862Z,89.15
2022-12-14T20:09:48.827Z,88.64
2022-12-14T20:12:15.514Z,88.33
2022-12-14T20:14:42.881Z,88.81
2022-12-14T20:17:11.726Z,89.09
2022-12-14T20:19:39.755Z,88.36
2022-12-14T20:22:08.512Z,89.58
2022-12-14T20:24:36.154Z,89.49
2022-12-14T20:27:02.802Z,89.83
2022-12-14T20:29:29.662Z,89.77
2022-12-14T20:31:56.491Z,89.34
2022-12-14T20:34:23.314Z,89.15
2022-12-14T20:36:50.044Z,89.90
2022-12-14T20:39:16.918Z,89.39
2022-12-14T20:41:43.792Z,89.53
2022-12-14T20:44:15.343Z,90.04
2022-12-14T20:46:44.999Z,89.84
2022-12-14T20:49:15.754Z,89.57
2022-12-14T20:51:43.768Z,89.71
2022-12-14T20:54:16.385Z,89.07
2022-12-14T20:56:43.898Z,89.62
2022-12-14T20:59:10.946Z,89.44
2022-12-14T21:01:39.806Z,89.28
2022-12-14T21:04:06.963Z,89.65
2022-12-14T21:06:38.892Z,89.38
2022-12-14T21:09:06.463Z,89.55
2022-12-14T21:11:55.149Z,88.95
2022-12-14T21:14:23.835Z,89.96
2022-12-14T21:16:50.592Z,90.39
2022-12-14T21:19:17.381Z,89.29
2022-12-14T21:21:49.893Z,89.95
2022-12-14T21:24:37.620Z,90.67
2022-12-14T21:27:08.621Z,89.83
2022-12-14T21:29:35.400Z,90.37
2022-12-14T21:32:02.188Z,89.94
2022-12-14T21:34:28.999Z,89.49
2022-12-14T21:36:55.865Z,90.22
2022-12-14T21:39:22.824Z,89.62
2022-12-14T21:42:08.189Z,89.85
2022-12-14T21:44:35.019Z,89.62
2022-12-14T21:47:02.317Z,89.75
2022-12-14T21:49:29.660Z,89.62
2022-12-14T21:51:57.597Z,90.54
2022-12-14T21:54:25.564Z,90.29
2022-12-14T21:57:11.530Z,90.33
2022-12-14T21:59:40.377Z,90.77
2022-12-14T22:02:12.059Z,90.69
2022-12-14T22:04:40.112Z,90.05
2022-12-14T22:07:07.281Z,90.44
2022-12-14T22:09:34.106Z,90.30
2022-12-14T22:12:00.727Z,90.46
2022-12-14T22:14:27.337Z,90.32
2022-12-14T22:16:54.195Z,90.38
2022-12-14T22:19:24.954Z,90.26
2022-12-14T22:21:52.832Z,90.36
2022-12-14T22:24:21.217Z,90.18
2022-12-14T22:26:48.290Z,90.47
2022-12-14T22:29:16.996Z,90.45
2022-12-14T22:31:44.445Z,89.83
2022-12-14T22:34:28.969Z,90.59
2022-12-14T22:36:55.672Z,90.07
2022-12-14T22:39:22.418Z,89.67
2022-12-14T22:41:49.464Z,89.88
2022-12-14T22:44:16.312Z,90.10
2022-12-14T22:46:42.973Z,90.72
2022-12-14T22:49:14.562Z,90.78
2022-12-14T22:51:41.436Z,90.07
2022-12-14T22:54:08.102Z,90.62
2022-12-14T22:56:40.120Z,90.72
2022-12-14T22:59:20.828Z,90.81
2022-12-14T23:01:50.001Z,91.17
2022-12-14T23:04:17.615Z,90.31
2022-12-14T23:06:44.889Z,90.82
2022-12-14T23:09:30.581Z,90.46
2022-12-14T23:12:21.307Z,90.63
2022-12-14T23:15:07.425Z,90.68
2022-12-14T23:17:53.160Z,90.49
2022-12-14T23:20:38.494Z,90.75
2022-12-14T23:23:25.693Z,90.03
2022-12-14T23:26:11.372Z,90.74
2022-12-14T23:28:59.094Z,90.32
2022-12-14T23:31:44.279Z,90.88
2022-12-14T23:34:29.651Z,90.60
2022-12-14T23:37:19.815Z,90.80
2022-12-14T23:40:05.582Z,91.00
2022-12-14T23:42:50.843Z,91.13
2022-12-14T23:45:35.675Z,91.30
2022-12-14T23:48:20.777Z,90.67
2022-12-14T23:51:06.164Z,90.79
2022-12-14T23:53:51.603Z,90.69
2022-12-14T23:56:37.269Z,90.67
2022-12-14T23:59:26.346Z,90.79
